sensor_id;sensor_type;location;lat;lon;timestamp;temperature;humidity
28767;DHT22;15921;52.034;20.650;2022-12-11T00:01:59;0.20;99.90
28767;DHT22;15921;52.034;20.650;2022-12-11T00:04:25;0.30;99.90
28767;DHT22;15921;52.034;20.650;2022-12-11T00:06:51;0.30;99.90
28767;DHT22;15921;52.034;20.650;2022-12-11T00:09:18;0.20;99.90
28767;DHT22;15921;52.034;20.650;2022-12-11T00:11:45;0.10;99.90
28767;DHT22;15921;52.034;20.650;2022-12-11T00:14:11;0.00;99.90
28767;DHT22;15921;52.034;20.650;2022-12-11T00:16:37;0.00;99.90
28767;DHT22;15921;52.034;20.650;2022-12-11T00:19:03;-0.10;99.90
28767;DHT22;15921;52.034;20.650;2022-12-11T00:21:29;0.00;99.90
28767;DHT22;15921;52.034;20.650;2022-12-11T00:23:55;0.00;99.90
28767;DHT22;15921;52.034;20.650;2022-12-11T00:26:20;0.00;99.90
28767;DHT22;15921;52.034;20.650;2022-12-11T00:28:46;0.00;99.90
28767;DHT22;15921;52.034;20.650;2022-12-11T00:31:16;0.00;99.90
28767;DHT22;15921;52.034;20.650;2022-12-11T00:33:43;0.10;99.90
28767;DHT22;15921;52.034;20.650;2022-12-11T00:36:13;0.10;99.90
28767;DHT22;15921;52.034;20.650;2022-12-11T00:38:39;0.20;99.90
28767;DHT22;15921;52.034;20.650;2022-12-11T00:41:05;0.10;99.90
28767;DHT22;15921;52.034;20.650;2022-12-11T00:43:31;0.10;99.90
28767;DHT22;15921;52.034;20.650;2022-12-11T00:45:57;0.10;99.90
28767;DHT22;15921;52.034;20.650;2022-12-11T00:48:22;0.00;99.90
28767;DHT22;15921;52.034;20.650;2022-12-11T00:50:48;0.00;99.90
28767;DHT22;15921;52.034;20.650;2022-12-11T00:53:14;-0.10;99.90
28767;DHT22;15921;52.034;20.650;2022-12-11T00:55:41;-0.20;99.90
28767;DHT22;15921;52.034;20.650;2022-12-11T00:58:07;-0.20;99.90
28767;DHT22;15921;52.034;20.650;2022-12-11T01:00:34;-0.20;99.90
28767;DHT22;15921;52.034;20.650;2022-12-11T01:03:00;-0.20;99.90
28767;DHT22;15921;52.034;20.650;2022-12-11T01:05:26;-0.20;99.90
28767;DHT22;15921;52.034;20.650;2022-12-11T01:07:51;-0.20;99.90
28767;DHT22;15921;52.034;20.650;2022-12-11T01:10:17;-0.20;99.90
28767;DHT22;15921;52.034;20.650;2022-12-11T01:12:50;-0.10;99.90
28767;DHT22;15921;52.034;20.650;2022-12-11T01:15:17;-0.10;99.90
28767;DHT22;15921;52.034;20.650;2022-12-11T01:17:43;-0.10;99.90
28767;DHT22;15921;52.034;20.650;2022-12-11T01:20:09;-0.20;99.90
28767;DHT22;15921;52.034;20.650;2022-12-11T01:22:34;-0.20;99.90
28767;DHT22;15921;52.034;20.650;2022-12-11T01:25:00;-0.20;99.90
28767;DHT22;15921;52.034;20.650;2022-12-11T01:27:26;-0.20;99.90
28767;DHT22;15921;52.034;20.650;2022-12-11T01:29:51;-0.30;99.90
28767;DHT22;15921;52.034;20.650;2022-12-11T01:32:17;-0.30;99.90
28767;DHT22;15921;52.034;20.650;2022-12-11T01:34:43;-0.20;99.90
28767;DHT22;15921;52.034;20.650;2022-12-11T01:37:08;-0.20;99.90
28767;DHT22;15921;52.034;20.650;2022-12-11T01:39:35;-0.20;99.90
28767;DHT22;15921;52.034;20.650;2022-12-11T01:42:01;-0.20;99.90
28767;DHT22;15921;52.034;20.650;2022-12-11T01:46:55;-0.30;99.90
28767;DHT22;15921;52.034;20.650;2022-12-11T01:49:23;-0.30;99.90
28767;DHT22;15921;52.034;20.650;2022-12-11T01:51:54;-0.30;99.90
28767;DHT22;15921;52.034;20.650;2022-12-11T01:54:23;-0.30;99.90
28767;DHT22;15921;52.034;20.650;2022-12-11T01:56:51;-0.30;99.90
28767;DHT22;15921;52.034;20.650;2022-12-11T01:59:20;-0.20;99.90
28767;DHT22;15921;52.034;20.650;2022-12-11T02:02:05;-0.30;99.90
28767;DHT22;15921;52.034;20.650;2022-12-11T02:04:32;-0.30;99.90
28767;DHT22;15921;52.034;20.650;2022-12-11T02:06:58;-0.30;99.90
28767;DHT22;15921;52.034;20.650;2022-12-11T02:09:27;-0.40;99.90
28767;DHT22;15921;52.034;20.650;2022-12-11T02:15:19;-0.50;99.90
28767;DHT22;15921;52.034;20.650;2022-12-11T02:18:02;-0.50;99.90
28767;DHT22;15921;52.034;20.650;2022-12-11T02:20:37;-0.50;99.90
28767;DHT22;15921;52.034;20.650;2022-12-11T02:28:31;-0.50;99.90
28767;DHT22;15921;52.034;20.650;2022-12-11T02:31:23;-0.50;99.90
28767;DHT22;15921;52.034;20.650;2022-12-11T02:33:58;-0.50;99.90
28767;DHT22;15921;52.034;20.650;2022-12-11T02:36:29;-0.50;99.90
28767;DHT22;15921;52.034;20.650;2022-12-11T02:38:56;-0.50;99.90
28767;DHT22;15921;52.034;20.650;2022-12-11T02:41:24;-0.60;99.90
28767;DHT22;15921;52.034;20.650;2022-12-11T02:43:51;-0.60;99.90
28767;DHT22;15921;52.034;20.650;2022-12-11T02:46:19;-0.50;99.90
28767;DHT22;15921;52.034;20.650;2022-12-11T02:48:47;-0.50;99.90
28767;DHT22;15921;52.034;20.650;2022-12-11T02:51:16;-0.60;99.90
28767;DHT22;15921;52.034;20.650;2022-12-11T02:53:44;-0.50;99.90
28767;DHT22;15921;52.034;20.650;2022-12-11T02:56:13;-0.50;99.90
28767;DHT22;15921;52.034;20.650;2022-12-11T02:59:05;-0.50;99.90
28767;DHT22;15921;52.034;20.650;2022-12-11T03:01:32;-0.40;99.90
28767;DHT22;15921;52.034;20.650;2022-12-11T03:03:58;-0.40;99.90
28767;DHT22;15921;52.034;20.650;2022-12-11T03:06:30;-0.50;99.90
28767;DHT22;15921;52.034;20.650;2022-12-11T03:08:57;-0.50;99.90
28767;DHT22;15921;52.034;20.650;2022-12-11T03:11:23;-0.50;99.90
28767;DHT22;15921;52.034;20.650;2022-12-11T03:13:48;-0.60;99.90
28767;DHT22;15921;52.034;20.650;2022-12-11T03:16:28;-0.60;99.90
28767;DHT22;15921;52.034;20.650;2022-12-11T03:19:01;-0.60;99.90
28767;DHT22;15921;52.034;20.650;2022-12-11T03:21:51;-0.60;99.90
28767;DHT22;15921;52.034;20.650;2022-12-11T03:24:22;-0.60;99.90
28767;DHT22;15921;52.034;20.650;2022-12-11T03:26:55;-0.60;99.90
28767;DHT22;15921;52.034;20.650;2022-12-11T03:29:29;-0.60;99.90
28767;DHT22;15921;52.034;20.650;2022-12-11T03:31:56;-0.60;99.90
28767;DHT22;15921;52.034;20.650;2022-12-11T03:34:50;-0.60;99.90
28767;DHT22;15921;52.034;20.650;2022-12-11T03:37:13;-0.70;99.90
28767;DHT22;15921;52.034;20.650;2022-12-11T03:39:44;-0.70;99.90
28767;DHT22;15921;52.034;20.650;2022-12-11T03:42:13;-0.70;99.90
28767;DHT22;15921;52.034;20.650;2022-12-11T03:44:42;-0.70;99.90
28767;DHT22;15921;52.034;20.650;2022-12-11T03:47:13;-0.60;99.90
28767;DHT22;15921;52.034;20.650;2022-12-11T03:49:41;-0.60;99.90
28767;DHT22;15921;52.034;20.650;2022-12-11T03:52:10;-0.60;99.90
28767;DHT22;15921;52.034;20.650;2022-12-11T03:54:38;-0.70;99.90
28767;DHT22;15921;52.034;20.650;2022-12-11T03:57:05;-0.70;99.90
28767;DHT22;15921;52.034;20.650;2022-12-11T03:59:32;-0.70;99.90
28767;DHT22;15921;52.034;20.650;2022-12-11T04:01:58;-0.70;99.90
28767;DHT22;15921;52.034;20.650;2022-12-11T04:04:24;-0.80;99.90
28767;DHT22;15921;52.034;20.650;2022-12-11T04:06:49;-0.80;99.90
28767;DHT22;15921;52.034;20.650;2022-12-11T04:09:15;-0.80;99.90
28767;DHT22;15921;52.034;20.650;2022-12-11T04:11:41;-0.90;99.90
28767;DHT22;15921;52.034;20.650;2022-12-11T04:14:12;-0.80;99.90
28767;DHT22;15921;52.034;20.650;2022-12-11T04:16:58;-0.80;99.90
28767;DHT22;15921;52.034;20.650;2022-12-11T04:19:24;-0.70;99.90
28767;DHT22;15921;52.034;20.650;2022-12-11T04:22:10;-0.70;99.90
28767;DHT22;15921;52.034;20.650;2022-12-11T04:24:55;-0.60;99.90
28767;DHT22;15921;52.034;20.650;2022-12-11T04:27:21;-0.50;99.90
28767;DHT22;15921;52.034;20.650;2022-12-11T04:30:09;-0.60;99.90
28767;DHT22;15921;52.034;20.650;2022-12-11T04:32:35;-0.60;99.90
28767;DHT22;15921;52.034;20.650;2022-12-11T04:35:01;-0.70;99.90
28767;DHT22;15921;52.034;20.650;2022-12-11T04:37:27;-0.70;99.90
28767;DHT22;15921;52.034;20.650;2022-12-11T04:39:53;-0.80;99.90
28767;DHT22;15921;52.034;20.650;2022-12-11T04:42:19;-0.70;99.90
28767;DHT22;15921;52.034;20.650;2022-12-11T04:44:45;-0.80;99.90
28767;DHT22;15921;52.034;20.650;2022-12-11T04:47:10;-0.80;99.90
28767;DHT22;15921;52.034;20.650;2022-12-11T04:49:36;-0.80;99.90
28767;DHT22;15921;52.034;20.650;2022-12-11T04:52:02;-0.80;99.90
28767;DHT22;15921;52.034;20.650;2022-12-11T04:54:29;-0.70;99.90
28767;DHT22;15921;52.034;20.650;2022-12-11T04:56:55;-0.80;99.90
28767;DHT22;15921;52.034;20.650;2022-12-11T04:59:21;-0.80;99.90
28767;DHT22;15921;52.034;20.650;2022-12-11T05:01:47;-0.80;99.90
28767;DHT22;15921;52.034;20.650;2022-12-11T05:04:13;-0.90;99.90
28767;DHT22;15921;52.034;20.650;2022-12-11T05:06:39;-0.90;99.90
28767;DHT22;15921;52.034;20.650;2022-12-11T05:09:04;-0.90;99.90
28767;DHT22;15921;52.034;20.650;2022-12-11T05:11:30;-0.90;99.90
28767;DHT22;15921;52.034;20.650;2022-12-11T05:13:56;-0.90;99.90
28767;DHT22;15921;52.034;20.650;2022-12-11T05:16:22;-0.90;99.90
28767;DHT22;15921;52.034;20.650;2022-12-11T05:18:47;-0.90;99.90
28767;DHT22;15921;52.034;20.650;2022-12-11T05:21:14;-0.90;99.90
28767;DHT22;15921;52.034;20.650;2022-12-11T05:23:41;-0.80;99.90
28767;DHT22;15921;52.034;20.650;2022-12-11T05:26:18;-0.90;99.90
28767;DHT22;15921;52.034;20.650;2022-12-11T05:28:45;-0.90;99.90
28767;DHT22;15921;52.034;20.650;2022-12-11T05:31:14;-0.90;99.90
28767;DHT22;15921;52.034;20.650;2022-12-11T05:33:40;-1.00;99.90
28767;DHT22;15921;52.034;20.650;2022-12-11T05:36:07;-1.00;99.90
28767;DHT22;15921;52.034;20.650;2022-12-11T05:38:33;-1.00;99.90
28767;DHT22;15921;52.034;20.650;2022-12-11T05:41:01;-1.10;99.90
28767;DHT22;15921;52.034;20.650;2022-12-11T05:43:29;-1.10;99.90
28767;DHT22;15921;52.034;20.650;2022-12-11T05:45:59;-1.10;99.90
28767;DHT22;15921;52.034;20.650;2022-12-11T05:48:28;-1.10;99.90
28767;DHT22;15921;52.034;20.650;2022-12-11T05:50:58;-1.10;99.90
28767;DHT22;15921;52.034;20.650;2022-12-11T05:53:24;-1.10;99.90
28767;DHT22;15921;52.034;20.650;2022-12-11T05:55:51;-1.20;99.90
28767;DHT22;15921;52.034;20.650;2022-12-11T05:58:18;-1.20;99.90
28767;DHT22;15921;52.034;20.650;2022-12-11T06:00:44;-1.20;99.90
28767;DHT22;15921;52.034;20.650;2022-12-11T06:03:10;-1.30;99.90
28767;DHT22;15921;52.034;20.650;2022-12-11T06:05:40;-1.30;99.90
28767;DHT22;15921;52.034;20.650;2022-12-11T06:08:06;-1.20;99.90
28767;DHT22;15921;52.034;20.650;2022-12-11T06:10:32;-1.20;99.90
28767;DHT22;15921;52.034;20.650;2022-12-11T06:12:58;-1.20;99.90
28767;DHT22;15921;52.034;20.650;2022-12-11T06:15:24;-1.20;99.90
28767;DHT22;15921;52.034;20.650;2022-12-11T06:17:49;-1.20;99.90
28767;DHT22;15921;52.034;20.650;2022-12-11T06:20:15;-1.20;99.90
28767;DHT22;15921;52.034;20.650;2022-12-11T06:22:41;-1.20;99.90
28767;DHT22;15921;52.034;20.650;2022-12-11T06:25:07;-1.20;99.90
28767;DHT22;15921;52.034;20.650;2022-12-11T06:27:33;-1.20;99.90
28767;DHT22;15921;52.034;20.650;2022-12-11T06:29:59;-1.20;99.90
28767;DHT22;15921;52.034;20.650;2022-12-11T06:32:25;-1.20;99.90
28767;DHT22;15921;52.034;20.650;2022-12-11T06:34:51;-1.20;99.90
28767;DHT22;15921;52.034;20.650;2022-12-11T06:37:17;-1.20;99.90
28767;DHT22;15921;52.034;20.650;2022-12-11T06:39:43;-1.20;99.90
28767;DHT22;15921;52.034;20.650;2022-12-11T06:42:08;-1.20;99.90
28767;DHT22;15921;52.034;20.650;2022-12-11T06:44:34;-1.20;99.90
28767;DHT22;15921;52.034;20.650;2022-12-11T06:47:00;-1.20;99.90
28767;DHT22;15921;52.034;20.650;2022-12-11T06:49:25;-1.20;99.90
28767;DHT22;15921;52.034;20.650;2022-12-11T06:51:51;-1.20;99.90
28767;DHT22;15921;52.034;20.650;2022-12-11T06:54:17;-1.20;99.90
28767;DHT22;15921;52.034;20.650;2022-12-11T06:56:42;-1.20;99.90
28767;DHT22;15921;52.034;20.650;2022-12-11T06:59:11;-1.30;99.90
28767;DHT22;15921;52.034;20.650;2022-12-11T07:01:37;-1.30;99.90
28767;DHT22;15921;52.034;20.650;2022-12-11T07:04:03;-1.30;99.90
28767;DHT22;15921;52.034;20.650;2022-12-11T07:06:29;-1.40;99.90
28767;DHT22;15921;52.034;20.650;2022-12-11T07:08:55;-1.40;99.90
28767;DHT22;15921;52.034;20.650;2022-12-11T07:11:21;-1.40;99.90
28767;DHT22;15921;52.034;20.650;2022-12-11T07:13:47;-1.30;99.90
28767;DHT22;15921;52.034;20.650;2022-12-11T07:16:14;-1.40;99.90
28767;DHT22;15921;52.034;20.650;2022-12-11T07:18:43;-1.40;99.90
28767;DHT22;15921;52.034;20.650;2022-12-11T07:21:12;-1.40;99.90
28767;DHT22;15921;52.034;20.650;2022-12-11T07:23:38;-1.40;99.90
28767;DHT22;15921;52.034;20.650;2022-12-11T07:26:09;-1.40;99.90
28767;DHT22;15921;52.034;20.650;2022-12-11T07:28:35;-1.30;99.90
28767;DHT22;15921;52.034;20.650;2022-12-11T07:31:09;-1.30;99.90
28767;DHT22;15921;52.034;20.650;2022-12-11T07:33:36;-1.40;99.90
28767;DHT22;15921;52.034;20.650;2022-12-11T07:36:03;-1.40;99.90
28767;DHT22;15921;52.034;20.650;2022-12-11T07:38:29;-1.40;99.90
28767;DHT22;15921;52.034;20.650;2022-12-11T07:40:55;-1.40;99.90
28767;DHT22;15921;52.034;20.650;2022-12-11T07:43:24;-1.40;99.90
28767;DHT22;15921;52.034;20.650;2022-12-11T07:45:50;-1.40;99.90
28767;DHT22;15921;52.034;20.650;2022-12-11T07:48:16;-1.40;99.90
28767;DHT22;15921;52.034;20.650;2022-12-11T07:50:41;-1.40;99.90
28767;DHT22;15921;52.034;20.650;2022-12-11T07:53:07;-1.40;99.90
28767;DHT22;15921;52.034;20.650;2022-12-11T07:55:33;-1.40;99.90
28767;DHT22;15921;52.034;20.650;2022-12-11T07:57:58;-1.40;99.90
28767;DHT22;15921;52.034;20.650;2022-12-11T08:00:24;-1.40;99.90
28767;DHT22;15921;52.034;20.650;2022-12-11T08:02:49;-1.40;99.90
28767;DHT22;15921;52.034;20.650;2022-12-11T08:05:15;-1.40;99.90
28767;DHT22;15921;52.034;20.650;2022-12-11T08:07:41;-1.40;99.90
28767;DHT22;15921;52.034;20.650;2022-12-11T08:10:07;-1.30;99.90
28767;DHT22;15921;52.034;20.650;2022-12-11T08:12:32;-1.30;99.90
28767;DHT22;15921;52.034;20.650;2022-12-11T08:14:58;-1.30;99.90
28767;DHT22;15921;52.034;20.650;2022-12-11T08:17:24;-1.30;99.90
28767;DHT22;15921;52.034;20.650;2022-12-11T08:19:49;-1.30;99.90
28767;DHT22;15921;52.034;20.650;2022-12-11T08:22:15;-1.30;99.90
28767;DHT22;15921;52.034;20.650;2022-12-11T08:24:41;-1.30;99.90
28767;DHT22;15921;52.034;20.650;2022-12-11T08:27:06;-1.30;99.90
28767;DHT22;15921;52.034;20.650;2022-12-11T08:29:32;-1.30;99.90
28767;DHT22;15921;52.034;20.650;2022-12-11T08:31:58;-1.30;99.90
28767;DHT22;15921;52.034;20.650;2022-12-11T08:34:23;-1.30;99.90
28767;DHT22;15921;52.034;20.650;2022-12-11T08:36:49;-1.40;99.90
28767;DHT22;15921;52.034;20.650;2022-12-11T08:39:15;-1.40;99.90
28767;DHT22;15921;52.034;20.650;2022-12-11T08:41:41;-1.40;99.90
28767;DHT22;15921;52.034;20.650;2022-12-11T08:44:12;-1.40;99.90
28767;DHT22;15921;52.034;20.650;2022-12-11T08:46:38;-1.40;99.90
28767;DHT22;15921;52.034;20.650;2022-12-11T08:49:04;-1.40;99.90
28767;DHT22;15921;52.034;20.650;2022-12-11T08:51:30;-1.40;99.90
28767;DHT22;15921;52.034;20.650;2022-12-11T08:53:57;-1.30;99.90
28767;DHT22;15921;52.034;20.650;2022-12-11T08:56:25;-1.40;99.90
28767;DHT22;15921;52.034;20.650;2022-12-11T08:58:51;-1.50;99.90
28767;DHT22;15921;52.034;20.650;2022-12-11T09:01:20;-1.50;99.90
28767;DHT22;15921;52.034;20.650;2022-12-11T09:03:46;-1.50;99.90
28767;DHT22;15921;52.034;20.650;2022-12-11T09:06:15;-1.50;99.90
28767;DHT22;15921;52.034;20.650;2022-12-11T09:08:44;-1.50;99.90
28767;DHT22;15921;52.034;20.650;2022-12-11T09:11:12;-1.60;99.90
28767;DHT22;15921;52.034;20.650;2022-12-11T09:13:39;-1.50;99.90
28767;DHT22;15921;52.034;20.650;2022-12-11T09:16:07;-1.50;99.90
28767;DHT22;15921;52.034;20.650;2022-12-11T09:18:34;-1.50;99.90
28767;DHT22;15921;52.034;20.650;2022-12-11T09:21:02;-1.50;99.90
28767;DHT22;15921;52.034;20.650;2022-12-11T09:23:28;-1.60;99.90
28767;DHT22;15921;52.034;20.650;2022-12-11T09:25:54;-1.60;99.90
28767;DHT22;15921;52.034;20.650;2022-12-11T09:28:20;-1.60;99.90
28767;DHT22;15921;52.034;20.650;2022-12-11T09:30:46;-1.60;99.90
28767;DHT22;15921;52.034;20.650;2022-12-11T09:33:11;-1.60;99.90
28767;DHT22;15921;52.034;20.650;2022-12-11T09:35:37;-1.60;99.90
28767;DHT22;15921;52.034;20.650;2022-12-11T09:38:03;-1.50;99.90
28767;DHT22;15921;52.034;20.650;2022-12-11T09:40:30;-1.50;99.90
28767;DHT22;15921;52.034;20.650;2022-12-11T09:43:05;-1.40;99.90
28767;DHT22;15921;52.034;20.650;2022-12-11T09:45:33;-1.40;99.90
28767;DHT22;15921;52.034;20.650;2022-12-11T09:47:59;-1.30;99.90
28767;DHT22;15921;52.034;20.650;2022-12-11T09:50:33;-1.30;99.90
28767;DHT22;15921;52.034;20.650;2022-12-11T09:53:12;-1.20;99.90
28767;DHT22;15921;52.034;20.650;2022-12-11T10:01:13;-1.20;99.90
28767;DHT22;15921;52.034;20.650;2022-12-11T10:06:41;-1.20;99.90
28767;DHT22;15921;52.034;20.650;2022-12-11T10:09:24;-1.20;99.90
28767;DHT22;15921;52.034;20.650;2022-12-11T10:17:30;-1.20;99.90
28767;DHT22;15921;52.034;20.650;2022-12-11T10:20:02;-1.30;99.90
28767;DHT22;15921;52.034;20.650;2022-12-11T10:22:31;-1.40;99.90
28767;DHT22;15921;52.034;20.650;2022-12-11T10:25:17;-1.40;99.90
28767;DHT22;15921;52.034;20.650;2022-12-11T10:27:44;-1.30;99.90
28767;DHT22;15921;52.034;20.650;2022-12-11T10:30:16;-1.20;99.90
28767;DHT22;15921;52.034;20.650;2022-12-11T10:35:42;-1.30;99.90
28767;DHT22;15921;52.034;20.650;2022-12-11T10:40:44;-1.30;99.90
28767;DHT22;15921;52.034;20.650;2022-12-11T10:43:10;-1.40;99.90
28767;DHT22;15921;52.034;20.650;2022-12-11T10:45:36;-1.50;99.90
28767;DHT22;15921;52.034;20.650;2022-12-11T10:48:11;-1.50;99.90
28767;DHT22;15921;52.034;20.650;2022-12-11T10:50:37;-1.50;99.90
28767;DHT22;15921;52.034;20.650;2022-12-11T10:53:04;-1.50;99.90
28767;DHT22;15921;52.034;20.650;2022-12-11T10:55:39;-1.60;99.90
28767;DHT22;15921;52.034;20.650;2022-12-11T10:58:16;-1.50;99.90
28767;DHT22;15921;52.034;20.650;2022-12-11T11:00:44;-1.40;99.90
28767;DHT22;15921;52.034;20.650;2022-12-11T11:03:26;-1.40;99.90
28767;DHT22;15921;52.034;20.650;2022-12-11T11:06:11;-1.40;99.90
28767;DHT22;15921;52.034;20.650;2022-12-11T11:08:45;-1.50;99.90
28767;DHT22;15921;52.034;20.650;2022-12-11T11:11:24;-1.40;99.90
28767;DHT22;15921;52.034;20.650;2022-12-11T11:13:52;-1.40;99.90
28767;DHT22;15921;52.034;20.650;2022-12-11T11:16:28;-1.30;99.90
28767;DHT22;15921;52.034;20.650;2022-12-11T11:18:54;-1.30;99.90
28767;DHT22;15921;52.034;20.650;2022-12-11T11:21:24;-1.30;99.90
28767;DHT22;15921;52.034;20.650;2022-12-11T11:23:52;-1.30;99.90
28767;DHT22;15921;52.034;20.650;2022-12-11T11:26:19;-1.40;99.90
28767;DHT22;15921;52.034;20.650;2022-12-11T11:28:52;-1.40;99.90
28767;DHT22;15921;52.034;20.650;2022-12-11T11:31:21;-1.40;99.90
28767;DHT22;15921;52.034;20.650;2022-12-11T11:36:23;-1.40;99.90
28767;DHT22;15921;52.034;20.650;2022-12-11T11:44:12;-1.40;99.90
28767;DHT22;15921;52.034;20.650;2022-12-11T11:46:56;-1.30;99.90
28767;DHT22;15921;52.034;20.650;2022-12-11T11:49:45;-1.40;99.90
28767;DHT22;15921;52.034;20.650;2022-12-11T11:52:22;-1.40;99.90
28767;DHT22;15921;52.034;20.650;2022-12-11T11:57:45;-1.40;99.90
28767;DHT22;15921;52.034;20.650;2022-12-11T12:00:23;-1.30;99.90
28767;DHT22;15921;52.034;20.650;2022-12-11T12:02:56;-1.30;99.90
28767;DHT22;15921;52.034;20.650;2022-12-11T12:06:13;-1.40;99.90
28767;DHT22;15921;52.034;20.650;2022-12-11T12:08:33;-1.50;99.90
28767;DHT22;15921;52.034;20.650;2022-12-11T12:11:08;-1.50;99.90
28767;DHT22;15921;52.034;20.650;2022-12-11T12:16:34;-1.60;99.90
28767;DHT22;15921;52.034;20.650;2022-12-11T12:21:50;-1.50;99.90
28767;DHT22;15921;52.034;20.650;2022-12-11T12:28:11;-1.60;99.90
28767;DHT22;15921;52.034;20.650;2022-12-11T12:30:23;-1.60;99.90
28767;DHT22;15921;52.034;20.650;2022-12-11T12:33:12;-1.60;99.90
28767;DHT22;15921;52.034;20.650;2022-12-11T12:38:36;-1.40;99.90
28767;DHT22;15921;52.034;20.650;2022-12-11T12:41:17;-1.40;99.90
28767;DHT22;15921;52.034;20.650;2022-12-11T12:44:13;-1.40;99.90
28767;DHT22;15921;52.034;20.650;2022-12-11T12:47:08;-1.40;99.90
28767;DHT22;15921;52.034;20.650;2022-12-11T12:49:41;-1.40;99.90
28767;DHT22;15921;52.034;20.650;2022-12-11T12:54:56;-1.50;99.90
28767;DHT22;15921;52.034;20.650;2022-12-11T12:57:53;-1.50;99.90
28767;DHT22;15921;52.034;20.650;2022-12-11T13:00:34;-1.50;99.90
28767;DHT22;15921;52.034;20.650;2022-12-11T13:03:24;-1.60;99.90
28767;DHT22;15921;52.034;20.650;2022-12-11T13:06:09;-1.60;99.90
28767;DHT22;15921;52.034;20.650;2022-12-11T13:08:46;-1.70;99.90
28767;DHT22;15921;52.034;20.650;2022-12-11T13:11:16;-1.80;99.90
28767;DHT22;15921;52.034;20.650;2022-12-11T13:13:45;-1.80;99.90
28767;DHT22;15921;52.034;20.650;2022-12-11T13:18:43;-1.90;99.90
28767;DHT22;15921;52.034;20.650;2022-12-11T13:23:54;-1.80;99.90
28767;DHT22;15921;52.034;20.650;2022-12-11T13:26:31;-1.70;99.90
28767;DHT22;15921;52.034;20.650;2022-12-11T13:28:57;-1.80;99.90
28767;DHT22;15921;52.034;20.650;2022-12-11T13:31:38;-1.80;99.90
28767;DHT22;15921;52.034;20.650;2022-12-11T13:34:19;-1.70;99.90
28767;DHT22;15921;52.034;20.650;2022-12-11T13:36:50;-1.70;99.90
28767;DHT22;15921;52.034;20.650;2022-12-11T13:39:33;-1.80;99.90
28767;DHT22;15921;52.034;20.650;2022-12-11T13:42:06;-1.80;99.90
28767;DHT22;15921;52.034;20.650;2022-12-11T13:44:41;-1.80;99.90
28767;DHT22;15921;52.034;20.650;2022-12-11T13:47:13;-1.80;99.90
28767;DHT22;15921;52.034;20.650;2022-12-11T13:49:42;-1.80;99.90
28767;DHT22;15921;52.034;20.650;2022-12-11T13:52:20;-1.70;99.90
28767;DHT22;15921;52.034;20.650;2022-12-11T13:54:49;-1.70;99.90
28767;DHT22;15921;52.034;20.650;2022-12-11T13:57:17;-1.70;99.90
28767;DHT22;15921;52.034;20.650;2022-12-11T13:59:56;-1.80;99.90
28767;DHT22;15921;52.034;20.650;2022-12-11T14:05:15;-1.90;99.90
28767;DHT22;15921;52.034;20.650;2022-12-11T14:07:53;-2.00;99.90
28767;DHT22;15921;52.034;20.650;2022-12-11T14:10:28;-2.00;99.90
28767;DHT22;15921;52.034;20.650;2022-12-11T14:13:16;-2.10;99.90
28767;DHT22;15921;52.034;20.650;2022-12-11T14:15:44;-2.10;99.90
28767;DHT22;15921;52.034;20.650;2022-12-11T14:18:25;-2.20;99.90
28767;DHT22;15921;52.034;20.650;2022-12-11T14:21:21;-2.20;99.90
28767;DHT22;15921;52.034;20.650;2022-12-11T14:23:59;-2.30;99.90
28767;DHT22;15921;52.034;20.650;2022-12-11T14:26:27;-2.30;99.90
28767;DHT22;15921;52.034;20.650;2022-12-11T14:28:53;-2.30;99.90
28767;DHT22;15921;52.034;20.650;2022-12-11T14:33:53;-2.30;99.90
28767;DHT22;15921;52.034;20.650;2022-12-11T14:36:20;-2.30;99.90
28767;DHT22;15921;52.034;20.650;2022-12-11T14:38:50;-2.30;99.90
28767;DHT22;15921;52.034;20.650;2022-12-11T14:41:37;-2.30;99.90
28767;DHT22;15921;52.034;20.650;2022-12-11T14:44:12;-2.30;99.90
28767;DHT22;15921;52.034;20.650;2022-12-11T14:46:49;-2.30;99.90
28767;DHT22;15921;52.034;20.650;2022-12-11T14:49:28;-2.40;99.90
28767;DHT22;15921;52.034;20.650;2022-12-11T14:51:57;-2.30;99.90
28767;DHT22;15921;52.034;20.650;2022-12-11T14:54:36;-2.40;99.90
28767;DHT22;15921;52.034;20.650;2022-12-11T14:57:04;-2.40;99.90
28767;DHT22;15921;52.034;20.650;2022-12-11T14:59:37;-2.40;99.90
28767;DHT22;15921;52.034;20.650;2022-12-11T15:02:37;-2.40;99.90
28767;DHT22;15921;52.034;20.650;2022-12-11T15:05:18;-2.50;99.90
28767;DHT22;15921;52.034;20.650;2022-12-11T15:08:33;-2.60;99.90
28767;DHT22;15921;52.034;20.650;2022-12-11T15:11:14;-2.60;99.90
28767;DHT22;15921;52.034;20.650;2022-12-11T15:13:55;-2.60;99.90
28767;DHT22;15921;52.034;20.650;2022-12-11T15:16:24;-2.60;99.90
28767;DHT22;15921;52.034;20.650;2022-12-11T15:18:52;-2.70;99.90
28767;DHT22;15921;52.034;20.650;2022-12-11T15:21:28;-2.70;99.90
28767;DHT22;15921;52.034;20.650;2022-12-11T15:23:56;-2.70;99.90
28767;DHT22;15921;52.034;20.650;2022-12-11T15:26:37;-2.70;99.90
28767;DHT22;15921;52.034;20.650;2022-12-11T15:29:19;-2.70;99.90
28767;DHT22;15921;52.034;20.650;2022-12-11T15:32:02;-2.70;99.90
28767;DHT22;15921;52.034;20.650;2022-12-11T15:34:33;-2.70;99.90
28767;DHT22;15921;52.034;20.650;2022-12-11T15:36:59;-2.70;99.90
28767;DHT22;15921;52.034;20.650;2022-12-11T15:39:25;-2.80;99.90
28767;DHT22;15921;52.034;20.650;2022-12-11T15:41:51;-2.70;99.90
28767;DHT22;15921;52.034;20.650;2022-12-11T15:44:20;-2.60;99.90
28767;DHT22;15921;52.034;20.650;2022-12-11T15:46:46;-2.60;99.90
28767;DHT22;15921;52.034;20.650;2022-12-11T15:49:12;-2.60;99.90
28767;DHT22;15921;52.034;20.650;2022-12-11T15:51:39;-2.60;99.90
28767;DHT22;15921;52.034;20.650;2022-12-11T15:54:05;-2.60;99.90
28767;DHT22;15921;52.034;20.650;2022-12-11T15:56:31;-2.60;99.90
28767;DHT22;15921;52.034;20.650;2022-12-11T15:59:03;-2.60;99.90
28767;DHT22;15921;52.034;20.650;2022-12-11T16:01:29;-2.60;99.90
28767;DHT22;15921;52.034;20.650;2022-12-11T16:03:55;-2.60;99.90
28767;DHT22;15921;52.034;20.650;2022-12-11T16:06:20;-2.60;99.90
28767;DHT22;15921;52.034;20.650;2022-12-11T16:08:46;-2.60;99.90
28767;DHT22;15921;52.034;20.650;2022-12-11T16:11:12;-2.50;99.90
28767;DHT22;15921;52.034;20.650;2022-12-11T16:13:38;-2.50;99.90
28767;DHT22;15921;52.034;20.650;2022-12-11T16:16:04;-2.50;99.90
28767;DHT22;15921;52.034;20.650;2022-12-11T16:18:30;-2.60;99.90
28767;DHT22;15921;52.034;20.650;2022-12-11T16:20:56;-2.60;99.90
28767;DHT22;15921;52.034;20.650;2022-12-11T16:23:23;-2.50;99.90
28767;DHT22;15921;52.034;20.650;2022-12-11T16:25:49;-2.60;99.90
28767;DHT22;15921;52.034;20.650;2022-12-11T16:28:17;-2.60;99.90
28767;DHT22;15921;52.034;20.650;2022-12-11T16:30:45;-2.60;99.90
28767;DHT22;15921;52.034;20.650;2022-12-11T16:33:11;-2.60;99.90
28767;DHT22;15921;52.034;20.650;2022-12-11T16:35:37;-2.60;99.90
28767;DHT22;15921;52.034;20.650;2022-12-11T16:38:03;-2.60;99.90
28767;DHT22;15921;52.034;20.650;2022-12-11T16:40:28;-2.70;99.90
28767;DHT22;15921;52.034;20.650;2022-12-11T16:42:54;-2.70;99.90